Time;durP1;ratioP1;P1;durP2;ratioP2;P2;SDS_P1;SDS_P2;PMS_P1;PMS_P2;Temp;Humidity;BMP_temperature;BMP_pressure;BME280_temperature;BME280_humidity;BME280_pressure;Samples;Min_cycle;Max_cycle;Signal;HPM_P1;HPM_P2
2022/06/29 00:01:55;;;;;;;6.17;2.70;;;21.80;1.00;;;;;;5013843;28;20202;-77
2022/06/29 00:04:21;;;;;;;6.83;3.10;;;21.80;1.00;;;;;;5006862;28;20213;-77
2022/06/29 00:06:47;;;;;;;4.47;3.10;;;21.80;1.00;;;;;;5006930;28;20192;-77
2022/06/29 00:09:13;;;;;;;4.83;2.47;;;21.90;1.00;;;;;;4987007;28;20247;-77
2022/06/29 00:11:38;;;;;;;4.67;2.57;;;21.90;1.00;;;;;;5005355;28;20912;-77
2022/06/29 00:14:04;;;;;;;4.63;2.60;;;21.90;1.00;;;;;;5007252;28;20328;-77
2022/06/29 00:16:30;;;;;;;3.67;2.70;;;22.00;1.00;;;;;;5007040;28;20264;-77
2022/06/29 00:18:55;;;;;;;4.80;2.70;;;22.00;1.00;;;;;;5007021;28;20170;-77
2022/06/29 00:21:21;;;;;;;5.50;2.67;;;21.90;1.00;;;;;;5005997;28;20287;-77
2022/06/29 00:23:46;;;;;;;5.10;2.93;;;22.00;1.00;;;;;;5005678;28;20669;-76
2022/06/29 00:26:12;;;;;;;4.87;2.47;;;21.90;1.00;;;;;;5003937;28;20213;-76
2022/06/29 00:28:37;;;;;;;9.93;2.80;;;21.90;1.00;;;;;;4987586;28;20185;-77
2022/06/29 00:31:03;;;;;;;3.73;2.63;;;22.10;1.00;;;;;;5006641;28;20166;-77
2022/06/29 00:33:29;;;;;;;3.03;2.53;;;22.00;1.00;;;;;;4988863;28;20204;-76
2022/06/29 00:35:54;;;;;;;7.13;2.77;;;22.10;1.00;;;;;;5006387;28;20198;-77
2022/06/29 00:38:20;;;;;;;4.07;3.07;;;22.10;1.00;;;;;;5006457;28;20181;-77
2022/06/29 00:40:45;;;;;;;5.40;3.03;;;22.10;1.00;;;;;;5003073;28;20186;-77
2022/06/29 00:43:11;;;;;;;5.03;3.03;;;22.00;1.00;;;;;;5005885;28;20201;-77
2022/06/29 00:45:37;;;;;;;3.60;2.57;;;21.90;1.00;;;;;;5016259;28;20201;-77
2022/06/29 00:48:03;;;;;;;5.70;2.60;;;22.30;1.00;;;;;;4997566;28;20184;-77
2022/06/29 00:50:33;;;;;;;7.80;3.07;;;22.00;1.00;;;;;;4988834;28;20260;-76
2022/06/29 00:53:03;;;;;;;4.40;2.73;;;21.90;1.00;;;;;;5004468;28;20639;-77
2022/06/29 00:55:31;;;;;;;5.50;2.90;;;21.90;1.00;;;;;;5006464;28;20467;-77
2022/06/29 00:58:00;;;;;;;6.17;3.10;;;21.80;1.00;;;;;;4987996;28;20995;-76
2022/06/29 01:00:26;;;;;;;5.20;2.90;;;21.80;1.00;;;;;;5006043;28;20516;-77
2022/06/29 01:02:51;;;;;;;4.23;2.63;;;21.80;1.00;;;;;;4987750;28;20894;-77
2022/06/29 01:05:17;;;;;;;3.43;2.60;;;21.80;1.00;;;;;;5006785;28;20206;-77
2022/06/29 01:07:43;;;;;;;7.10;2.47;;;21.70;1.00;;;;;;5005711;28;20188;-77
2022/06/29 01:10:09;;;;;;;4.33;2.90;;;21.80;1.00;;;;;;5006529;28;20624;-77
2022/06/29 01:12:34;;;;;;;5.47;2.57;;;21.80;1.00;;;;;;5005305;28;20444;-76
2022/06/29 01:15:00;;;;;;;5.63;2.80;;;21.90;1.00;;;;;;5004576;28;20193;-77
2022/06/29 01:17:25;;;;;;;3.23;2.33;;;21.80;1.00;;;;;;5006388;28;20556;-77
2022/06/29 01:19:51;;;;;;;4.00;2.80;;;21.80;1.00;;;;;;5005148;28;20589;-77
2022/06/29 01:22:19;;;;;;;9.40;2.90;;;21.80;1.00;;;;;;5005652;28;20208;-77
2022/06/29 01:24:46;;;;;;;3.50;2.60;;;21.80;1.00;;;;;;5003299;28;20478;-76
2022/06/29 01:27:13;;;;;;;7.30;2.70;;;21.90;1.00;;;;;;5006366;28;20429;-77
2022/06/29 01:29:39;;;;;;;4.87;3.00;;;21.90;1.00;;;;;;5005628;28;20428;-77
2022/06/29 01:32:06;;;;;;;4.60;3.03;;;21.90;1.00;;;;;;5019095;28;21070;-77
2022/06/29 01:34:33;;;;;;;6.30;3.30;;;21.90;1.00;;;;;;5005884;28;20460;-77
2022/06/29 01:36:59;;;;;;;7.60;3.10;;;21.90;1.00;;;;;;5003180;28;20433;-77
2022/06/29 01:39:26;;;;;;;6.63;2.67;;;21.90;1.00;;;;;;5001732;28;21434;-76
2022/06/29 01:41:52;;;;;;;3.70;2.43;;;22.00;1.00;;;;;;5009732;28;20189;-76
2022/06/29 01:44:17;;;;;;;3.43;2.63;;;21.90;1.00;;;;;;5009146;28;20995;-76
2022/06/29 01:46:43;;;;;;;3.92;2.35;;;22.00;1.00;;;;;;5008249;28;20607;-77
2022/06/29 01:49:09;;;;;;;4.63;2.40;;;22.20;1.00;;;;;;5009147;28;20676;-77
2022/06/29 01:51:34;;;;;;;10.20;3.00;;;22.10;1.00;;;;;;4991939;28;20261;-77
2022/06/29 01:54:00;;;;;;;7.47;2.90;;;22.00;1.00;;;;;;4990365;28;20182;-77
2022/06/29 01:56:25;;;;;;;4.43;2.83;;;22.00;1.00;;;;;;5009459;28;20181;-77
2022/06/29 01:58:51;;;;;;;4.90;2.63;;;21.90;1.00;;;;;;5020428;28;20299;-77
2022/06/29 02:01:17;;;;;;;5.23;2.70;;;21.80;1.00;;;;;;5023038;28;20210;-77
2022/06/29 02:03:42;;;;;;;3.93;2.60;;;;;;;;;;4991435;28;20209;-76
2022/06/29 02:06:08;;;;;;;4.20;2.40;;;21.70;1.00;;;;;;4992197;28;20248;-77
2022/06/29 02:08:34;;;;;;;4.37;2.50;;;21.70;1.00;;;;;;5009437;28;20178;-77
2022/06/29 02:11:00;;;;;;;4.20;2.73;;;21.70;1.00;;;;;;5000719;28;20604;-76
2022/06/29 02:13:26;;;;;;;4.20;2.80;;;21.70;1.00;;;;;;5008831;28;20672;-76
2022/06/29 02:15:52;;;;;;;6.80;3.10;;;21.70;1.00;;;;;;4990472;28;20874;-77
2022/06/29 02:18:17;;;;;;;3.40;2.60;;;21.70;1.00;;;;;;5009081;28;20564;-77
2022/06/29 02:20:43;;;;;;;5.10;3.03;;;21.70;1.00;;;;;;5009122;28;20265;-77
2022/06/29 02:23:09;;;;;;;4.63;2.87;;;21.70;1.00;;;;;;5006376;28;20208;-77
2022/06/29 02:25:34;;;;;;;4.80;2.63;;;21.70;1.00;;;;;;5008996;28;20648;-77
2022/06/29 02:28:00;;;;;;;4.67;2.97;;;21.70;1.00;;;;;;5004717;28;20178;-77
2022/06/29 02:35:54;;;;;;;4.10;2.73;;;21.60;1.00;;;;;;5007494;28;20871;-76
2022/06/29 02:38:19;;;;;;;3.63;2.93;;;21.60;1.00;;;;;;5009156;28;20461;-77
2022/06/29 02:40:45;;;;;;;4.20;2.90;;;21.60;1.00;;;;;;5007958;28;20670;-77
2022/06/29 02:43:10;;;;;;;5.50;2.70;;;21.50;1.00;;;;;;5007847;28;20214;-78
2022/06/29 02:45:36;;;;;;;4.17;3.03;;;21.50;1.00;;;;;;4989510;28;20193;-78
2022/06/29 02:48:02;;;;;;;6.50;2.83;;;21.50;1.00;;;;;;5009492;28;20257;-77
2022/06/29 02:50:28;;;;;;;4.70;2.90;;;21.40;1.00;;;;;;5008009;28;20572;-78
2022/06/29 02:52:53;;;;;;;4.90;3.50;;;21.50;1.00;;;;;;5007252;28;20186;-77
2022/06/29 02:55:19;;;;;;;12.33;3.10;;;21.50;1.00;;;;;;5007801;28;20222;-78
2022/06/29 02:57:44;;;;;;;4.90;3.07;;;21.50;1.00;;;;;;5007236;28;20665;-77
2022/06/29 03:00:11;;;;;;;4.60;2.57;;;21.60;1.00;;;;;;5008229;28;20244;-78
2022/06/29 03:02:37;;;;;;;4.40;3.00;;;21.60;1.00;;;;;;4989930;28;20212;-77
2022/06/29 03:05:03;;;;;;;4.13;2.97;;;21.60;1.00;;;;;;5008071;28;20433;-78
2022/06/29 03:07:28;;;;;;;3.30;2.67;;;21.60;1.00;;;;;;5007380;28;20205;-78
2022/06/29 03:09:54;;;;;;;3.57;2.87;;;21.60;1.00;;;;;;5008499;28;20166;-77
2022/06/29 03:12:19;;;;;;;6.33;2.70;;;21.60;1.00;;;;;;4989660;28;20193;-76
2022/06/29 03:14:45;;;;;;;4.10;2.87;;;21.60;1.00;;;;;;5008482;28;20194;-76
2022/06/29 03:17:10;;;;;;;3.53;2.60;;;21.60;1.00;;;;;;5007281;28;20177;-77
2022/06/29 03:19:36;;;;;;;4.70;3.20;;;21.70;1.00;;;;;;5008139;28;20323;-77
2022/06/29 03:22:01;;;;;;;4.23;3.10;;;21.70;1.00;;;;;;4988866;28;20197;-77
2022/06/29 03:24:27;;;;;;;4.17;2.83;;;21.60;1.00;;;;;;4990215;28;20186;-77
2022/06/29 03:26:53;;;;;;;3.93;2.90;;;21.60;1.00;;;;;;4989110;28;20633;-76
2022/06/29 03:29:18;;;;;;;4.90;3.07;;;21.60;1.00;;;;;;5022405;28;20197;-76
2022/06/29 03:31:44;;;;;;;9.77;2.73;;;21.60;1.00;;;;;;5013438;28;20264;-77
2022/06/29 03:34:09;;;;;;;4.20;2.90;;;21.70;1.00;;;;;;4989908;28;20229;-76
2022/06/29 03:36:35;;;;;;;6.60;3.10;;;21.60;1.00;;;;;;5008165;28;20194;-76
2022/06/29 03:39:00;;;;;;;4.73;2.60;;;21.40;1.00;;;;;;4988708;28;20182;-76
2022/06/29 03:41:26;;;;;;;6.20;3.10;;;21.50;1.00;;;;;;5006516;28;20213;-77
2022/06/29 03:43:51;;;;;;;5.23;2.87;;;21.50;1.00;;;;;;5007663;28;20257;-77
2022/06/29 03:46:17;;;;;;;6.90;3.23;;;21.50;1.00;;;;;;5007196;28;20277;-76
2022/06/29 03:48:42;;;;;;;4.63;3.30;;;21.50;1.00;;;;;;4989308;28;20252;-77
2022/06/29 03:51:08;;;;;;;4.83;3.27;;;21.40;1.00;;;;;;5007712;28;20185;-76
2022/06/29 03:53:34;;;;;;;4.80;3.03;;;21.70;1.00;;;;;;5007739;28;20201;-76
2022/06/29 03:56:00;;;;;;;4.37;2.70;;;21.40;1.00;;;;;;4988578;28;21362;-76
2022/06/29 03:58:26;;;;;;;4.40;2.93;;;21.40;1.00;;;;;;5014895;28;20443;-76
2022/06/29 04:00:51;;;;;;;5.50;3.20;;;21.40;1.00;;;;;;5017336;28;20276;-74
2022/06/29 04:03:17;;;;;;;7.40;3.30;;;21.40;1.00;;;;;;5007379;28;20571;-77
2022/06/29 04:05:43;;;;;;;4.40;3.10;;;21.30;1.00;;;;;;5007174;28;20201;-77
2022/06/29 04:08:09;;;;;;;6.00;3.00;;;21.20;1.00;;;;;;5006624;28;20178;-76
2022/06/29 04:10:34;;;;;;;7.23;3.40;;;21.20;1.00;;;;;;4988200;28;20173;-76
2022/06/29 04:13:00;;;;;;;5.67;3.13;;;21.30;1.00;;;;;;5006855;28;20179;-76
2022/06/29 04:15:25;;;;;;;5.10;3.17;;;21.50;1.00;;;;;;5006838;28;20204;-76
2022/06/29 04:17:51;;;;;;;6.20;3.03;;;21.40;1.00;;;;;;5008540;28;20632;-77
2022/06/29 04:23:02;;;;;;;5.40;3.10;;;21.50;1.00;;;;;;5006323;28;20201;-77
2022/06/29 04:25:28;;;;;;;7.80;3.03;;;21.60;1.00;;;;;;4989597;28;20544;-76
2022/06/29 04:27:54;;;;;;;4.33;2.90;;;21.60;1.00;;;;;;4988407;28;20946;-77
2022/06/29 04:30:19;;;;;;;5.70;2.73;;;21.60;1.00;;;;;;5007397;28;20607;-77
2022/06/29 04:32:45;;;;;;;5.00;3.17;;;21.60;1.00;;;;;;4988235;28;20894;-77
2022/06/29 04:35:11;;;;;;;3.70;3.00;;;21.60;1.00;;;;;;4989311;28;20787;-77
2022/06/29 04:37:37;;;;;;;5.30;2.80;;;21.80;1.00;;;;;;5006043;28;20376;-77
2022/06/29 04:40:03;;;;;;;3.83;2.60;;;21.80;1.00;;;;;;4989342;28;20253;-76
2022/06/29 04:42:29;;;;;;;4.37;2.87;;;21.80;1.00;;;;;;5005585;28;20548;-77
2022/06/29 04:44:55;;;;;;;3.80;2.63;;;21.80;1.00;;;;;;5007548;28;20486;-76
2022/06/29 04:47:21;;;;;;;3.17;2.80;;;21.80;1.00;;;;;;5004363;28;20182;-75
2022/06/29 04:49:46;;;;;;;6.20;2.60;;;21.90;1.00;;;;;;5006785;28;20275;-76
2022/06/29 04:52:12;;;;;;;3.57;2.73;;;21.90;1.00;;;;;;5005221;28;20652;-76
2022/06/29 04:54:38;;;;;;;8.37;2.70;;;22.00;1.00;;;;;;5007131;28;20628;-77
2022/06/29 04:57:06;;;;;;;5.73;3.27;;;22.00;1.00;;;;;;5004565;28;20475;-76
2022/06/29 04:59:32;;;;;;;9.60;3.17;;;22.00;1.00;;;;;;5006996;28;20474;-76
2022/06/29 05:01:58;;;;;;;5.67;3.33;;;22.10;1.00;;;;;;5004299;28;20967;-76
2022/06/29 05:04:23;;;;;;;5.80;3.00;;;22.00;1.00;;;;;;5007319;28;20194;-76
2022/06/29 05:06:49;;;;;;;4.20;2.80;;;22.10;1.00;;;;;;5006252;28;20182;-76
2022/06/29 05:09:14;;;;;;;7.60;3.00;;;22.20;1.00;;;;;;5006498;28;20192;-76
2022/06/29 05:11:40;;;;;;;4.10;2.93;;;22.10;1.00;;;;;;5006018;28;20209;-76
2022/06/29 05:14:05;;;;;;;6.10;3.40;;;22.10;1.00;;;;;;4989391;28;20198;-76
2022/06/29 05:16:31;;;;;;;4.30;2.80;;;22.20;1.00;;;;;;5009320;28;20192;-76
2022/06/29 05:18:56;;;;;;;5.47;2.73;;;22.00;1.00;;;;;;5009331;28;20661;-76
2022/06/29 05:21:22;;;;;;;6.20;3.47;;;22.00;1.00;;;;;;5009278;28;20300;-76
2022/06/29 05:23:47;;;;;;;10.57;3.00;;;22.00;1.00;;;;;;4992187;28;20257;-76
2022/06/29 05:26:13;;;;;;;3.07;2.70;;;22.10;1.00;;;;;;5009958;28;20603;-76
2022/06/29 05:28:39;;;;;;;7.90;3.17;;;22.10;1.00;;;;;;5014792;28;20178;-76
2022/06/29 05:31:05;;;;;;;3.73;2.67;;;22.20;1.00;;;;;;5015053;28;20248;-75
2022/06/29 05:33:36;;;;;;;7.83;2.90;;;22.20;1.00;;;;;;4992960;28;20448;-76
2022/06/29 05:36:03;;;;;;;5.20;2.83;;;22.30;1.00;;;;;;5008474;28;20196;-76
2022/06/29 05:38:31;;;;;;;4.03;3.00;;;22.20;1.00;;;;;;5002015;28;20444;-76
2022/06/29 05:40:56;;;;;;;7.43;3.03;;;22.20;1.00;;;;;;5009689;28;20416;-76
2022/06/29 05:43:22;;;;;;;11.20;3.30;;;22.20;1.00;;;;;;5010145;28;20551;-76
2022/06/29 05:45:48;;;;;;;7.60;3.00;;;22.30;1.00;;;;;;4991749;28;20185;-76
2022/06/29 05:48:13;;;;;;;6.47;3.27;;;22.40;1.00;;;;;;4992519;28;20185;-76
2022/06/29 05:50:39;;;;;;;4.17;3.00;;;22.50;1.00;;;;;;5016201;28;20742;-76
2022/06/29 05:53:05;;;;;;;6.83;3.03;;;22.50;1.00;;;;;;5029082;28;20250;-76
2022/06/29 05:55:31;;;;;;;4.33;3.07;;;22.60;1.00;;;;;;4992250;28;20206;-77
2022/06/29 05:57:57;;;;;;;5.07;3.00;;;22.70;1.00;;;;;;5005332;28;20413;-75
2022/06/29 06:00:23;;;;;;;4.80;2.90;;;22.80;1.00;;;;;;5011194;28;20664;-75
2022/06/29 06:02:48;;;;;;;11.73;3.20;;;22.90;1.00;;;;;;5009790;28;20660;-75
2022/06/29 06:05:14;;;;;;;5.93;2.90;;;23.10;1.00;;;;;;5009747;28;20269;-75
2022/06/29 06:07:40;;;;;;;4.13;2.80;;;23.20;1.00;;;;;;5010329;28;20659;-75
2022/06/29 06:10:05;;;;;;;4.20;3.20;;;23.40;1.00;;;;;;5010737;28;20189;-75
2022/06/29 06:12:32;;;;;;;7.30;3.20;;;23.40;1.00;;;;;;4992910;28;20192;-74
2022/06/29 06:14:59;;;;;;;5.30;2.70;;;23.60;1.00;;;;;;5009691;28;20198;-75
2022/06/29 06:17:26;;;;;;;8.23;3.00;;;23.70;1.00;;;;;;5002082;28;20982;-73
2022/06/29 06:19:53;;;;;;;8.77;2.80;;;23.70;1.00;;;;;;5009728;28;20421;-73
2022/06/29 06:22:18;;;;;;;4.50;2.80;;;23.60;1.00;;;;;;5002469;28;20449;-74
2022/06/29 06:24:44;;;;;;;6.40;3.30;;;23.60;1.00;;;;;;5002963;28;20436;-74
2022/06/29 06:27:09;;;;;;;5.50;3.00;;;23.70;1.00;;;;;;5004937;28;20178;-74
2022/06/29 06:29:35;;;;;;;7.23;2.90;;;23.70;1.00;;;;;;4991493;28;20172;-74
2022/06/29 06:32:04;;;;;;;4.10;2.57;;;23.60;1.00;;;;;;5009016;28;20675;-75
2022/06/29 06:34:30;;;;;;;5.43;3.10;;;23.60;1.00;;;;;;5009784;28;20206;-75
2022/06/29 06:36:56;;;;;;;7.60;2.90;;;23.50;1.00;;;;;;5010002;28;20413;-75
2022/06/29 06:39:21;;;;;;;5.90;2.77;;;23.30;1.00;;;;;;5009205;28;20455;-75
2022/06/29 06:41:47;;;;;;;3.87;2.80;;;23.30;1.00;;;;;;4988501;28;20205;-75
2022/06/29 06:44:12;;;;;;;5.37;2.90;;;23.20;1.00;;;;;;4991960;28;20205;-75
2022/06/29 06:46:38;;;;;;;7.60;3.07;;;23.20;1.00;;;;;;5002724;28;20617;-73
2022/06/29 06:49:03;;;;;;;5.40;3.00;;;23.20;1.00;;;;;;5009989;28;20263;-75
2022/06/29 06:51:29;;;;;;;4.60;3.00;;;23.30;1.00;;;;;;5014379;28;20232;-74
2022/06/29 06:53:55;;;;;;;11.57;3.30;;;23.20;1.00;;;;;;5002991;28;20578;-76
2022/06/29 06:56:20;;;;;;;5.43;3.00;;;23.20;1.00;;;;;;5027214;28;20166;-75
2022/06/29 06:58:46;;;;;;;6.00;3.30;;;23.20;1.00;;;;;;5008763;28;20201;-75
2022/06/29 07:01:12;;;;;;;4.70;3.50;;;23.40;1.00;;;;;;5011246;28;20188;-74
2022/06/29 07:03:38;;;;;;;5.47;3.97;;;23.50;1.00;;;;;;5013334;28;20585;-75
2022/06/29 07:06:05;;;;;;;9.00;3.93;;;23.60;1.00;;;;;;5014877;28;20213;-75
2022/06/29 07:08:31;;;;;;;5.03;3.80;;;23.70;1.00;;;;;;5007269;28;20428;-75
2022/06/29 07:10:58;;;;;;;6.60;4.17;;;23.90;1.00;;;;;;5013201;28;20416;-75
2022/06/29 07:13:24;;;;;;;5.00;3.50;;;24.10;1.00;;;;;;5016765;28;20431;-74
2022/06/29 07:15:49;;;;;;;11.23;3.70;;;24.30;1.00;;;;;;5014390;28;20437;-75
2022/06/29 07:18:15;;;;;;;6.47;4.33;;;24.40;1.00;;;;;;4998642;28;20663;-75
2022/06/29 07:20:41;;;;;;;7.47;4.97;;;24.60;1.00;;;;;;5002136;28;20231;-75
2022/06/29 07:23:06;;;;;;;7.23;4.47;;;24.80;1.00;;;;;;5017192;28;20623;-75
2022/06/29 07:25:32;;;;;;;7.57;5.50;;;25.30;1.00;;;;;;5024423;28;20189;-75
2022/06/29 07:27:57;;;;;;;6.77;5.13;;;25.50;1.00;;;;;;5005728;28;20166;-75
2022/06/29 07:30:23;;;;;;;7.97;5.20;;;25.80;1.00;;;;;;4992740;28;20178;-75
2022/06/29 07:32:48;;;;;;;5.87;5.23;;;26.10;1.00;;;;;;5015922;28;20181;-75
2022/06/29 07:35:14;;;;;;;7.20;4.63;;;26.20;1.00;;;;;;5023723;28;20209;-75
2022/06/29 07:37:39;;;;;;;7.20;4.90;;;26.50;1.00;;;;;;5002166;28;20304;-75
2022/06/29 07:40:05;;;;;;;5.43;4.57;;;26.90;1.00;;;;;;5007402;28;20174;-75
2022/06/29 07:42:35;;;;;;;7.20;5.60;;;27.10;1.00;;;;;;4997998;28;20756;-75
2022/06/29 07:45:01;;;;;;;7.57;5.27;;;27.30;1.00;;;;;;5012785;28;20200;-75
2022/06/29 07:47:27;;;;;;;13.00;6.23;;;27.10;1.00;;;;;;5011814;28;20464;-75
2022/06/29 07:49:53;;;;;;;11.70;5.60;;;27.10;1.00;;;;;;5003877;28;20281;-75
2022/06/29 07:52:18;;;;;;;8.40;5.60;;;27.00;1.00;;;;;;5010778;28;20181;-75
2022/06/29 07:54:43;;;;;;;9.57;6.50;;;26.90;1.00;;;;;;5010278;28;20590;-75
2022/06/29 07:57:09;;;;;;;7.70;6.50;;;26.90;1.00;;;;;;4996347;28;20255;-75
2022/06/29 07:59:35;;;;;;;11.83;6.17;;;27.10;1.00;;;;;;5016943;28;20182;-76
2022/06/29 08:02:00;;;;;;;7.97;6.87;;;27.30;1.00;;;;;;5026457;28;20193;-75
2022/06/29 08:04:26;;;;;;;14.07;6.70;;;27.30;1.00;;;;;;5013153;28;20206;-75
2022/06/29 08:06:51;;;;;;;8.40;7.53;;;27.50;1.00;;;;;;5009297;28;20185;-74
2022/06/29 08:09:17;;;;;;;8.63;6.80;;;27.70;1.00;;;;;;5020902;28;20169;-76
2022/06/29 08:11:42;;;;;;;7.43;6.60;;;27.90;1.00;;;;;;5009322;28;20203;-75
2022/06/29 08:14:08;;;;;;;11.67;6.83;;;28.40;1.00;;;;;;5001090;28;20205;-75
2022/06/29 08:16:33;;;;;;;8.37;6.90;;;29.20;1.00;;;;;;5020620;28;20177;-75
2022/06/29 08:18:59;;;;;;;8.30;6.33;;;29.20;1.00;;;;;;5027335;28;20306;-75
2022/06/29 08:21:24;;;;;;;11.17;7.33;;;29.20;1.00;;;;;;5025856;28;20309;-75
2022/06/29 08:23:50;;;;;;;7.67;6.87;;;29.30;1.00;;;;;;5019939;28;20556;-75
2022/06/29 08:26:15;;;;;;;7.67;6.30;;;29.30;1.00;;;;;;5011736;28;20179;-75
2022/06/29 08:28:41;;;;;;;6.53;5.85;;;29.60;1.00;;;;;;4989528;28;20181;-75
2022/06/29 08:31:06;;;;;;;9.30;6.60;;;29.90;1.00;;;;;;5019029;28;20183;-74
2022/06/29 08:33:32;;;;;;;7.88;6.22;;;30.00;1.00;;;;;;5018687;28;20197;-75
2022/06/29 08:35:57;;;;;;;8.65;6.68;;;30.30;1.00;;;;;;5005550;28;20198;-76
2022/06/29 08:38:23;;;;;;;10.93;6.20;;;30.60;1.00;;;;;;4999570;28;20560;-75
2022/06/29 08:40:49;;;;;;;11.60;5.95;;;30.70;1.00;;;;;;5023312;28;20212;-75
2022/06/29 08:43:16;;;;;;;11.55;6.80;;;30.60;1.00;;;;;;5017576;28;20209;-75
2022/06/29 08:45:47;;;;;;;7.25;6.10;;;30.70;1.00;;;;;;5013365;28;20288;-76
2022/06/29 08:48:13;;;;;;;8.23;6.60;;;30.10;1.00;;;;;;5013146;28;20391;-75
2022/06/29 08:50:40;;;;;;;8.03;6.20;;;29.90;1.00;;;;;;5013383;28;20185;-75
2022/06/29 08:53:07;;;;;;;8.23;6.60;;;29.30;1.00;;;;;;5029898;28;20474;-75
2022/06/29 08:55:39;;;;;;;10.00;6.63;;;29.20;1.00;;;;;;5018372;28;20202;-75
2022/06/29 08:58:06;;;;;;;9.32;6.70;;;29.20;1.00;;;;;;5009025;28;20515;-75
2022/06/29 09:00:36;;;;;;;9.13;6.78;;;29.30;1.00;;;;;;5009959;28;20228;-75
2022/06/29 09:03:04;;;;;;;6.90;6.03;;;29.70;1.00;;;;;;5021890;28;20507;-75
2022/06/29 09:05:30;;;;;;;17.58;7.10;;;29.60;1.00;;;;;;5017866;28;20216;-75
2022/06/29 09:07:55;;;;;;;9.07;6.47;;;29.80;1.00;;;;;;5024538;28;20182;-76
2022/06/29 09:10:23;;;;;;;8.02;6.97;;;30.00;1.00;;;;;;5014427;28;20182;-75
2022/06/29 09:12:50;;;;;;;8.55;6.75;;;30.30;1.00;;;;;;4995663;28;20188;-76
2022/06/29 09:15:16;;;;;;;13.32;7.18;;;31.30;1.00;;;;;;5020884;28;20267;-76
2022/06/29 09:17:42;;;;;;;7.32;6.63;;;31.80;1.00;;;;;;5023924;28;20173;-76
2022/06/29 09:20:10;;;;;;;8.45;6.93;;;31.70;1.00;;;;;;5016619;28;20235;-76
2022/06/29 09:22:50;;;;;;;7.05;6.35;;;31.60;1.00;;;;;;5009766;28;20204;-76
2022/06/29 09:25:24;;;;;;;7.82;6.07;;;31.40;1.00;;;;;;4997366;28;20189;-76
2022/06/29 09:27:49;;;;;;;10.73;6.30;;;30.70;1.00;;;;;;5014501;28;20207;-75
2022/06/29 09:30:36;;;;;;;7.45;5.95;;;30.10;1.00;;;;;;5001798;28;20204;-76
2022/06/29 09:33:07;;;;;;;7.80;6.43;;;29.80;1.00;;;;;;5011466;28;20399;-75
2022/06/29 09:35:34;;;;;;;9.77;6.10;;;29.80;1.00;;;;;;5027658;28;20764;-75
2022/06/29 09:38:22;;;;;;;6.82;6.03;;;29.80;1.00;;;;;;5002485;28;20193;-75
2022/06/29 09:41:03;;;;;;;8.75;6.40;;;29.80;1.00;;;;;;5018113;28;20439;-75
2022/06/29 09:43:33;;;;;;;7.45;6.35;;;30.10;1.00;;;;;;5030387;28;20201;-75
2022/06/29 09:46:00;;;;;;;7.35;6.15;;;30.70;1.00;;;;;;5008760;28;20186;-75
2022/06/29 09:48:27;;;;;;;8.60;6.05;;;31.20;1.00;;;;;;5024708;28;20275;-76
2022/06/29 09:50:54;;;;;;;8.15;5.70;;;32.80;1.00;;;;;;5013099;28;20289;-75
2022/06/29 09:53:29;;;;;;;6.57;5.97;;;33.90;1.00;;;;;;5006610;28;20273;-76
2022/06/29 09:56:02;;;;;;;6.63;5.93;;;35.40;1.00;;;;;;5020929;28;20220;-75
2022/06/29 09:58:41;;;;;;;7.30;6.22;;;35.70;1.00;;;;;;5021786;28;20265;-76
2022/06/29 10:03:54;;;;;;;6.85;5.75;;;36.30;1.00;;;;;;5023198;28;20200;-75
2022/06/29 10:06:21;;;;;;;10.57;6.15;;;36.30;1.00;;;;;;5024454;28;20261;-75
2022/06/29 10:08:47;;;;;;;8.88;6.03;;;35.60;1.00;;;;;;5031638;28;20223;-75
2022/06/29 10:14:42;;;;;;;6.47;5.60;;;34.60;1.00;;;;;;5017054;28;20641;-76
2022/06/29 10:17:26;;;;;;;7.50;6.28;;;34.20;1.00;;;;;;5020595;28;20600;-75
2022/06/29 10:20:04;;;;;;;9.68;6.15;;;34.20;1.00;;;;;;4996682;28;20178;-75
2022/06/29 10:22:30;;;;;;;7.45;6.20;;;34.30;1.00;;;;;;4995365;28;20201;-75
2022/06/29 10:25:07;;;;;;;6.45;5.80;;;34.60;1.00;;;;;;5024042;28;20508;-75
2022/06/29 10:27:33;;;;;;;10.55;6.07;;;35.90;1.00;;;;;;4998504;28;20276;-75
2022/06/29 10:30:18;;;;;;;6.95;5.63;;;36.30;1.00;;;;;;5013497;28;20279;-75
2022/06/29 10:32:44;;;;;;;6.05;5.18;;;37.80;1.00;;;;;;5030774;28;20177;-76
2022/06/29 10:35:10;;;;;;;6.00;5.40;;;38.90;1.00;;;;;;5031435;28;20231;-76
2022/06/29 10:37:56;;;;;;;6.07;5.47;;;38.90;1.00;;;;;;5031392;28;20179;-76
2022/06/29 10:40:24;;;;;;;6.00;5.40;;;37.30;1.00;;;;;;5021886;28;20674;-75
2022/06/29 10:43:09;;;;;;;7.43;5.63;;;37.80;1.00;;;;;;4994481;28;20285;-76
2022/06/29 10:45:36;;;;;;;7.25;5.45;;;38.60;1.00;;;;;;5010109;28;20269;-75
2022/06/29 10:48:06;;;;;;;9.75;8.77;;;38.60;1.00;;;;;;4989472;28;20736;-79
2022/06/29 10:50:38;;;;;;;5.68;5.15;;;39.00;1.00;;;;;;5021148;28;20180;-75
2022/06/29 10:53:05;;;;;;;7.45;5.45;;;39.20;1.00;;;;;;4998530;28;20867;-76
2022/06/29 10:55:33;;;;;;;5.15;4.65;;;39.90;1.00;;;;;;5023153;28;20193;-76
2022/06/29 10:57:59;;;;;;;5.40;4.72;;;40.70;1.00;;;;;;4990329;28;20190;-76
2022/06/29 11:00:26;;;;;;;4.55;4.15;;;40.60;1.00;;;;;;4995543;28;20624;-76
2022/06/29 11:02:52;;;;;;;6.63;4.40;;;41.00;1.00;;;;;;5019941;28;20289;-75
2022/06/29 11:05:18;;;;;;;5.45;4.50;;;40.10;1.00;;;;;;5013694;28;20724;-76
2022/06/29 11:13:21;;;;;;;6.18;4.20;;;37.60;1.00;;;;;;5023045;28;20276;-76
2022/06/29 11:15:49;;;;;;;6.18;4.53;;;39.00;1.00;;;;;;4993696;28;20206;-76
2022/06/29 11:18:20;;;;;;;6.43;4.35;;;40.10;1.00;;;;;;5019376;28;20182;-76
2022/06/29 11:20:50;;;;;;;5.20;3.95;;;41.20;1.00;;;;;;5025842;28;20256;-76
2022/06/29 11:23:16;;;;;;;6.82;4.30;;;41.40;1.00;;;;;;5000796;28;20797;-77
2022/06/29 11:25:46;;;;;;;8.43;4.53;;;41.20;1.00;;;;;;5016839;28;20746;-76
2022/06/29 11:28:13;;;;;;;5.95;4.25;;;41.80;1.00;;;;;;5031299;28;20173;-76
2022/06/29 11:30:39;;;;;;;4.93;4.43;;;42.40;1.00;;;;;;5026618;28;20186;-76
2022/06/29 11:33:12;;;;;;;5.15;4.25;;;42.50;1.00;;;;;;5013571;28;20182;-77
2022/06/29 11:35:39;;;;;;;4.60;4.10;;;42.40;1.00;;;;;;5029361;28;20203;-76
2022/06/29 11:38:07;;;;;;;4.50;4.10;;;42.40;1.00;;;;;;5005102;28;20293;-76
2022/06/29 11:40:41;;;;;;;7.22;4.13;;;42.50;1.00;;;;;;5012476;28;20186;-76
2022/06/29 11:43:13;;;;;;;5.45;4.20;;;43.20;1.00;;;;;;5016494;28;20200;-76
2022/06/29 11:45:45;;;;;;;8.27;4.10;;;43.10;1.00;;;;;;4994137;28;20194;-76
2022/06/29 11:48:19;;;;;;;6.07;4.13;;;43.50;1.00;;;;;;4983118;28;20184;-76
2022/06/29 11:50:49;;;;;;;7.32;3.95;;;44.00;1.00;;;;;;5013397;28;20174;-76
2022/06/29 11:53:37;;;;;;;5.47;4.07;;;43.90;1.00;;;;;;4994268;28;20201;-76
2022/06/29 11:56:13;;;;;;;4.80;3.70;;;41.00;1.00;;;;;;5012667;28;20216;-75
2022/06/29 11:58:44;;;;;;;7.07;4.18;;;40.50;1.00;;;;;;5022583;28;20182;-76
2022/06/29 12:01:11;;;;;;;4.93;4.22;;;40.30;1.00;;;;;;5003739;28;20604;-78
2022/06/29 12:03:38;;;;;;;5.25;4.45;;;40.60;1.00;;;;;;5024173;28;20204;-76
2022/06/29 12:06:04;;;;;;;6.22;4.15;;;40.20;1.00;;;;;;4999237;28;20193;-76
2022/06/29 12:08:30;;;;;;;4.88;4.20;;;39.70;1.00;;;;;;5001724;28;20173;-75
2022/06/29 12:10:57;;;;;;;6.00;4.32;;;39.10;1.00;;;;;;5031253;28;20264;-75
2022/06/29 12:13:23;;;;;;;5.45;4.07;;;38.00;1.00;;;;;;5004529;28;20184;-75
2022/06/29 12:15:49;;;;;;;12.10;3.95;;;;;;;;;;4998056;28;20212;-77
2022/06/29 12:18:16;;;;;;;5.15;4.43;;;36.80;1.00;;;;;;5023943;28;20549;-75
2022/06/29 12:20:44;;;;;;;11.20;4.72;;;36.50;1.00;;;;;;5006007;28;20314;-75
2022/06/29 12:23:10;;;;;;;5.10;4.43;;;36.70;1.00;;;;;;5024249;28;20201;-75
2022/06/29 12:25:36;;;;;;;5.18;4.68;;;37.60;1.00;;;;;;5003968;28;20201;-75
2022/06/29 12:28:02;;;;;;;4.68;4.28;;;37.80;1.00;;;;;;4993073;28;20176;-75
2022/06/29 12:30:28;;;;;;;8.88;4.95;;;37.70;1.00;;;;;;5012420;28;20648;-75
2022/06/29 12:32:54;;;;;;;5.65;4.25;;;37.90;1.00;;;;;;5011457;28;20185;-75
2022/06/29 12:35:19;;;;;;;5.38;4.35;;;38.90;1.00;;;;;;5026599;28;20899;-75
2022/06/29 12:37:45;;;;;;;4.85;4.35;;;39.20;1.00;;;;;;5013384;28;20277;-75
2022/06/29 12:40:11;;;;;;;5.38;4.68;;;39.50;1.00;;;;;;5021461;28;20185;-75
2022/06/29 12:42:37;;;;;;;4.85;4.13;;;;;;;;;;5023826;28;20280;-75
2022/06/29 12:45:04;;;;;;;4.90;4.40;;;39.80;1.00;;;;;;5015152;28;20329;-76
2022/06/29 12:47:30;;;;;;;4.95;4.45;;;41.00;1.00;;;;;;5015221;28;20180;-76
2022/06/29 12:49:56;;;;;;;8.05;4.70;;;42.20;1.00;;;;;;5029838;28;20185;-75
2022/06/29 12:52:24;;;;;;;5.28;4.47;;;42.20;1.00;;;;;;5028652;28;20239;-75
2022/06/29 12:54:50;;;;;;;6.05;4.28;;;42.10;1.00;;;;;;4997540;28;20217;-76
2022/06/29 12:57:18;;;;;;;8.93;3.88;;;42.50;1.00;;;;;;5001337;28;20294;-75
2022/06/29 12:59:44;;;;;;;8.63;3.80;;;42.70;1.00;;;;;;5018567;28;20201;-76
2022/06/29 13:02:10;;;;;;;5.90;3.67;;;42.80;1.00;;;;;;5001086;28;20269;-76
2022/06/29 13:04:36;;;;;;;6.13;4.10;;;43.30;1.00;;;;;;4999689;28;20194;-76
2022/06/29 13:07:02;;;;;;;6.13;4.18;;;42.20;1.00;;;;;;5018783;28;20174;-77
2022/06/29 13:09:28;;;;;;;5.65;4.45;;;41.30;1.00;;;;;;5023100;28;20174;-75
2022/06/29 13:11:54;;;;;;;4.40;3.95;;;41.30;1.00;;;;;;5021775;28;20472;-75
2022/06/29 13:14:19;;;;;;;9.90;3.90;;;40.80;1.00;;;;;;5018832;28;20204;-75
2022/06/29 13:16:45;;;;;;;6.68;4.28;;;41.40;1.00;;;;;;5011548;28;20202;-75